sensor_id;sensor_type;location;lat;lon;timestamp;temperature;humidity
28171;DHT22;15458;53.346;-1.688;2023-02-15T00:01:43;2.40;99.90
28171;DHT22;15458;53.346;-1.688;2023-02-15T00:04:09;2.40;99.90
28171;DHT22;15458;53.346;-1.688;2023-02-15T00:06:35;2.30;99.90
28171;DHT22;15458;53.346;-1.688;2023-02-15T00:09:02;2.30;99.90
28171;DHT22;15458;53.346;-1.688;2023-02-15T00:11:28;2.20;99.90
28171;DHT22;15458;53.346;-1.688;2023-02-15T00:14:20;2.10;99.90
28171;DHT22;15458;53.346;-1.688;2023-02-15T00:16:47;2.00;99.90
28171;DHT22;15458;53.346;-1.688;2023-02-15T00:19:15;2.00;99.90
28171;DHT22;15458;53.346;-1.688;2023-02-15T00:21:41;1.90;99.90
28171;DHT22;15458;53.346;-1.688;2023-02-15T00:24:09;1.90;99.90
28171;DHT22;15458;53.346;-1.688;2023-02-15T00:26:35;1.90;99.90
28171;DHT22;15458;53.346;-1.688;2023-02-15T00:29:03;1.90;99.90
28171;DHT22;15458;53.346;-1.688;2023-02-15T00:31:31;1.90;99.90
28171;DHT22;15458;53.346;-1.688;2023-02-15T00:34:12;1.90;99.90
28171;DHT22;15458;53.346;-1.688;2023-02-15T00:36:38;1.90;99.90
28171;DHT22;15458;53.346;-1.688;2023-02-15T00:39:04;1.90;99.90
28171;DHT22;15458;53.346;-1.688;2023-02-15T00:41:31;1.90;99.90
28171;DHT22;15458;53.346;-1.688;2023-02-15T00:43:56;1.90;99.90
28171;DHT22;15458;53.346;-1.688;2023-02-15T00:46:23;1.90;99.90
28171;DHT22;15458;53.346;-1.688;2023-02-15T00:48:49;1.90;99.90
28171;DHT22;15458;53.346;-1.688;2023-02-15T00:51:16;1.80;99.90
28171;DHT22;15458;53.346;-1.688;2023-02-15T00:53:42;1.90;99.90
28171;DHT22;15458;53.346;-1.688;2023-02-15T00:56:10;1.90;99.90
28171;DHT22;15458;53.346;-1.688;2023-02-15T00:58:36;1.80;99.90
28171;DHT22;15458;53.346;-1.688;2023-02-15T01:01:10;1.70;99.90
28171;DHT22;15458;53.346;-1.688;2023-02-15T01:03:36;1.70;99.90
28171;DHT22;15458;53.346;-1.688;2023-02-15T01:06:03;1.70;99.90
28171;DHT22;15458;53.346;-1.688;2023-02-15T01:08:29;1.70;99.90
28171;DHT22;15458;53.346;-1.688;2023-02-15T01:10:56;1.70;99.90
28171;DHT22;15458;53.346;-1.688;2023-02-15T01:13:22;1.70;99.90
28171;DHT22;15458;53.346;-1.688;2023-02-15T01:15:56;1.70;99.90
28171;DHT22;15458;53.346;-1.688;2023-02-15T01:18:22;1.70;99.90
28171;DHT22;15458;53.346;-1.688;2023-02-15T01:20:49;1.60;99.90
28171;DHT22;15458;53.346;-1.688;2023-02-15T01:23:14;1.50;99.90
28171;DHT22;15458;53.346;-1.688;2023-02-15T01:25:40;1.50;99.90
28171;DHT22;15458;53.346;-1.688;2023-02-15T01:28:06;1.50;99.90
28171;DHT22;15458;53.346;-1.688;2023-02-15T01:30:33;1.40;99.90
28171;DHT22;15458;53.346;-1.688;2023-02-15T01:32:59;1.40;99.90
28171;DHT22;15458;53.346;-1.688;2023-02-15T01:35:27;1.30;99.90
28171;DHT22;15458;53.346;-1.688;2023-02-15T01:37:53;1.30;99.90
28171;DHT22;15458;53.346;-1.688;2023-02-15T01:40:19;1.30;99.90
28171;DHT22;15458;53.346;-1.688;2023-02-15T01:42:45;1.20;99.90
28171;DHT22;15458;53.346;-1.688;2023-02-15T01:45:25;1.20;99.90
28171;DHT22;15458;53.346;-1.688;2023-02-15T01:48:22;1.10;99.90
28171;DHT22;15458;53.346;-1.688;2023-02-15T01:50:53;1.10;99.90
28171;DHT22;15458;53.346;-1.688;2023-02-15T01:53:21;1.10;99.90
28171;DHT22;15458;53.346;-1.688;2023-02-15T01:55:57;1.10;99.90
28171;DHT22;15458;53.346;-1.688;2023-02-15T01:58:26;1.10;99.90
28171;DHT22;15458;53.346;-1.688;2023-02-15T02:00:54;1.00;99.90
28171;DHT22;15458;53.346;-1.688;2023-02-15T02:06:14;1.00;99.90
28171;DHT22;15458;53.346;-1.688;2023-02-15T02:08:42;0.90;99.90
28171;DHT22;15458;53.346;-1.688;2023-02-15T02:11:14;1.00;99.90
28171;DHT22;15458;53.346;-1.688;2023-02-15T02:13:42;0.90;99.90
28171;DHT22;15458;53.346;-1.688;2023-02-15T02:16:54;0.90;99.90
28171;DHT22;15458;53.346;-1.688;2023-02-15T02:27:33;0.80;99.90
28171;DHT22;15458;53.346;-1.688;2023-02-15T02:30:26;0.80;99.90
28171;DHT22;15458;53.346;-1.688;2023-02-15T02:41:26;0.60;99.90
28171;DHT22;15458;53.346;-1.688;2023-02-15T02:44:01;0.60;99.90
28171;DHT22;15458;53.346;-1.688;2023-02-15T02:46:41;0.60;99.90
28171;DHT22;15458;53.346;-1.688;2023-02-15T02:49:09;0.60;99.90
28171;DHT22;15458;53.346;-1.688;2023-02-15T02:51:35;0.60;99.90
28171;DHT22;15458;53.346;-1.688;2023-02-15T02:54:05;0.50;99.90
28171;DHT22;15458;53.346;-1.688;2023-02-15T02:56:43;0.50;99.90
28171;DHT22;15458;53.346;-1.688;2023-02-15T02:59:23;0.40;99.90
28171;DHT22;15458;53.346;-1.688;2023-02-15T03:04:37;0.40;99.90
28171;DHT22;15458;53.346;-1.688;2023-02-15T03:07:08;0.30;99.90
28171;DHT22;15458;53.346;-1.688;2023-02-15T03:09:41;0.30;99.90
28171;DHT22;15458;53.346;-1.688;2023-02-15T03:12:34;0.30;99.90
28171;DHT22;15458;53.346;-1.688;2023-02-15T03:15:16;0.20;99.90
28171;DHT22;15458;53.346;-1.688;2023-02-15T03:17:48;0.20;99.90
28171;DHT22;15458;53.346;-1.688;2023-02-15T03:20:22;0.20;99.90
28171;DHT22;15458;53.346;-1.688;2023-02-15T03:23:04;0.20;99.90
28171;DHT22;15458;53.346;-1.688;2023-02-15T03:25:36;0.10;99.90
28171;DHT22;15458;53.346;-1.688;2023-02-15T03:28:06;0.10;99.90
28171;DHT22;15458;53.346;-1.688;2023-02-15T03:30:37;0.10;99.90
28171;DHT22;15458;53.346;-1.688;2023-02-15T03:33:11;0.00;99.90
28171;DHT22;15458;53.346;-1.688;2023-02-15T03:35:53;0.00;99.90
28171;DHT22;15458;53.346;-1.688;2023-02-15T03:38:36;-0.10;99.90
28171;DHT22;15458;53.346;-1.688;2023-02-15T03:41:03;-0.20;99.90
28171;DHT22;15458;53.346;-1.688;2023-02-15T03:43:51;-0.20;99.90
28171;DHT22;15458;53.346;-1.688;2023-02-15T03:46:23;-0.20;99.90
28171;DHT22;15458;53.346;-1.688;2023-02-15T03:49:24;-0.20;99.90
28171;DHT22;15458;53.346;-1.688;2023-02-15T03:51:52;-0.30;99.90
28171;DHT22;15458;53.346;-1.688;2023-02-15T03:54:26;-0.30;99.90
28171;DHT22;15458;53.346;-1.688;2023-02-15T03:57:12;-0.30;99.90
28171;DHT22;15458;53.346;-1.688;2023-02-15T04:00:02;-0.20;99.90
28171;DHT22;15458;53.346;-1.688;2023-02-15T04:05:15;-0.20;99.90
28171;DHT22;15458;53.346;-1.688;2023-02-15T04:07:41;-0.20;99.90
28171;DHT22;15458;53.346;-1.688;2023-02-15T04:10:07;-0.20;99.90
28171;DHT22;15458;53.346;-1.688;2023-02-15T04:12:51;-0.20;99.90
28171;DHT22;15458;53.346;-1.688;2023-02-15T04:15:16;-0.20;99.90
28171;DHT22;15458;53.346;-1.688;2023-02-15T04:18:02;-0.10;99.90
28171;DHT22;15458;53.346;-1.688;2023-02-15T04:20:28;-0.10;99.90
28171;DHT22;15458;53.346;-1.688;2023-02-15T04:23:12;-0.10;99.90
28171;DHT22;15458;53.346;-1.688;2023-02-15T04:25:56;-0.10;99.90
28171;DHT22;15458;53.346;-1.688;2023-02-15T04:28:22;-0.20;99.90
28171;DHT22;15458;53.346;-1.688;2023-02-15T04:30:48;-0.20;99.90
28171;DHT22;15458;53.346;-1.688;2023-02-15T04:33:13;-0.30;99.90
28171;DHT22;15458;53.346;-1.688;2023-02-15T04:35:39;-0.30;99.90
28171;DHT22;15458;53.346;-1.688;2023-02-15T04:38:05;-0.30;99.90
28171;DHT22;15458;53.346;-1.688;2023-02-15T04:40:30;-0.20;99.90
28171;DHT22;15458;53.346;-1.688;2023-02-15T04:42:56;-0.30;99.90
28171;DHT22;15458;53.346;-1.688;2023-02-15T04:45:22;-0.30;99.90
28171;DHT22;15458;53.346;-1.688;2023-02-15T04:47:47;-0.30;99.90
28171;DHT22;15458;53.346;-1.688;2023-02-15T04:50:13;-0.30;99.90
28171;DHT22;15458;53.346;-1.688;2023-02-15T04:52:39;-0.30;99.90
28171;DHT22;15458;53.346;-1.688;2023-02-15T04:55:05;-0.20;99.90
28171;DHT22;15458;53.346;-1.688;2023-02-15T04:57:30;-0.20;99.90
28171;DHT22;15458;53.346;-1.688;2023-02-15T04:59:56;-0.20;99.90
28171;DHT22;15458;53.346;-1.688;2023-02-15T05:02:24;-0.20;99.90
28171;DHT22;15458;53.346;-1.688;2023-02-15T05:04:50;-0.20;99.90
28171;DHT22;15458;53.346;-1.688;2023-02-15T05:07:15;-0.30;99.90
28171;DHT22;15458;53.346;-1.688;2023-02-15T05:09:41;-0.20;99.90
28171;DHT22;15458;53.346;-1.688;2023-02-15T05:12:07;-0.20;99.90
28171;DHT22;15458;53.346;-1.688;2023-02-15T05:14:32;-0.20;99.90
28171;DHT22;15458;53.346;-1.688;2023-02-15T05:16:58;-0.30;99.90
28171;DHT22;15458;53.346;-1.688;2023-02-15T05:19:27;-0.30;99.90
28171;DHT22;15458;53.346;-1.688;2023-02-15T05:21:52;-0.30;99.90
28171;DHT22;15458;53.346;-1.688;2023-02-15T05:24:18;-0.40;99.90
28171;DHT22;15458;53.346;-1.688;2023-02-15T05:27:02;-0.50;99.90
28171;DHT22;15458;53.346;-1.688;2023-02-15T05:29:46;-0.50;99.90
28171;DHT22;15458;53.346;-1.688;2023-02-15T05:32:15;-0.60;99.90
28171;DHT22;15458;53.346;-1.688;2023-02-15T05:34:40;-0.50;99.90
28171;DHT22;15458;53.346;-1.688;2023-02-15T05:37:06;-0.60;99.90
28171;DHT22;15458;53.346;-1.688;2023-02-15T05:39:51;-0.60;99.90
28171;DHT22;15458;53.346;-1.688;2023-02-15T05:42:16;-0.60;99.90
28171;DHT22;15458;53.346;-1.688;2023-02-15T05:44:43;-0.60;99.90
28171;DHT22;15458;53.346;-1.688;2023-02-15T05:47:08;-0.60;99.90
28171;DHT22;15458;53.346;-1.688;2023-02-15T05:49:34;-0.60;99.90
28171;DHT22;15458;53.346;-1.688;2023-02-15T05:52:00;-0.50;99.90
28171;DHT22;15458;53.346;-1.688;2023-02-15T05:54:25;-0.50;99.90
28171;DHT22;15458;53.346;-1.688;2023-02-15T05:56:51;-0.50;99.90
28171;DHT22;15458;53.346;-1.688;2023-02-15T05:59:17;-0.50;99.90
28171;DHT22;15458;53.346;-1.688;2023-02-15T06:01:42;-0.50;99.90
28171;DHT22;15458;53.346;-1.688;2023-02-15T06:04:08;-0.50;99.90
28171;DHT22;15458;53.346;-1.688;2023-02-15T06:06:34;-0.60;99.90
28171;DHT22;15458;53.346;-1.688;2023-02-15T06:09:00;-0.60;99.90
28171;DHT22;15458;53.346;-1.688;2023-02-15T06:11:25;-0.70;99.90
28171;DHT22;15458;53.346;-1.688;2023-02-15T06:13:51;-0.70;99.90
28171;DHT22;15458;53.346;-1.688;2023-02-15T06:16:17;-0.70;99.90
28171;DHT22;15458;53.346;-1.688;2023-02-15T06:18:42;-0.70;99.90
28171;DHT22;15458;53.346;-1.688;2023-02-15T06:21:08;-0.60;99.90
28171;DHT22;15458;53.346;-1.688;2023-02-15T06:23:34;-0.60;99.90
28171;DHT22;15458;53.346;-1.688;2023-02-15T06:25:59;-0.50;99.90
28171;DHT22;15458;53.346;-1.688;2023-02-15T06:28:25;-0.50;99.90
28171;DHT22;15458;53.346;-1.688;2023-02-15T06:30:51;-0.50;99.90
28171;DHT22;15458;53.346;-1.688;2023-02-15T06:33:17;-0.40;99.90
28171;DHT22;15458;53.346;-1.688;2023-02-15T06:35:44;-0.50;99.90
28171;DHT22;15458;53.346;-1.688;2023-02-15T06:38:09;-0.50;99.90
28171;DHT22;15458;53.346;-1.688;2023-02-15T06:40:35;-0.50;99.90
28171;DHT22;15458;53.346;-1.688;2023-02-15T06:43:01;-0.50;99.90
28171;DHT22;15458;53.346;-1.688;2023-02-15T06:45:26;-0.50;99.90
28171;DHT22;15458;53.346;-1.688;2023-02-15T06:47:52;-0.50;99.90
28171;DHT22;15458;53.346;-1.688;2023-02-15T06:50:18;-0.50;99.90
28171;DHT22;15458;53.346;-1.688;2023-02-15T06:52:43;-0.50;99.90
28171;DHT22;15458;53.346;-1.688;2023-02-15T06:55:09;-0.50;99.90
28171;DHT22;15458;53.346;-1.688;2023-02-15T06:57:35;-0.60;99.90
28171;DHT22;15458;53.346;-1.688;2023-02-15T07:00:04;-0.60;99.90
28171;DHT22;15458;53.346;-1.688;2023-02-15T07:02:30;-0.60;99.90
28171;DHT22;15458;53.346;-1.688;2023-02-15T07:04:56;-0.70;99.90
28171;DHT22;15458;53.346;-1.688;2023-02-15T07:07:22;-0.70;99.90
28171;DHT22;15458;53.346;-1.688;2023-02-15T07:09:48;-0.70;99.90
28171;DHT22;15458;53.346;-1.688;2023-02-15T07:12:13;-0.70;99.90
28171;DHT22;15458;53.346;-1.688;2023-02-15T07:14:57;-0.70;99.90
28171;DHT22;15458;53.346;-1.688;2023-02-15T07:17:23;-0.80;99.90
28171;DHT22;15458;53.346;-1.688;2023-02-15T07:19:49;-0.90;99.90
28171;DHT22;15458;53.346;-1.688;2023-02-15T07:22:15;-0.90;99.90
28171;DHT22;15458;53.346;-1.688;2023-02-15T07:24:41;-0.90;99.90
28171;DHT22;15458;53.346;-1.688;2023-02-15T07:27:07;-0.90;99.90
28171;DHT22;15458;53.346;-1.688;2023-02-15T07:29:33;-0.90;99.90
28171;DHT22;15458;53.346;-1.688;2023-02-15T07:31:58;-0.90;99.90
28171;DHT22;15458;53.346;-1.688;2023-02-15T07:34:24;-0.90;99.90
28171;DHT22;15458;53.346;-1.688;2023-02-15T07:36:53;-0.90;99.90
28171;DHT22;15458;53.346;-1.688;2023-02-15T07:39:19;-0.90;99.90
28171;DHT22;15458;53.346;-1.688;2023-02-15T07:41:45;-0.80;99.90
28171;DHT22;15458;53.346;-1.688;2023-02-15T07:44:14;-0.90;99.90
28171;DHT22;15458;53.346;-1.688;2023-02-15T07:46:40;-0.90;99.90
28171;DHT22;15458;53.346;-1.688;2023-02-15T07:49:06;-0.80;99.90
28171;DHT22;15458;53.346;-1.688;2023-02-15T07:51:32;-0.80;99.90
28171;DHT22;15458;53.346;-1.688;2023-02-15T07:53:57;-0.90;99.90
28171;DHT22;15458;53.346;-1.688;2023-02-15T07:56:23;-0.80;99.90
28171;DHT22;15458;53.346;-1.688;2023-02-15T07:58:49;-0.90;99.90
28171;DHT22;15458;53.346;-1.688;2023-02-15T08:01:19;-0.90;99.90
28171;DHT22;15458;53.346;-1.688;2023-02-15T08:03:45;-0.90;99.90
28171;DHT22;15458;53.346;-1.688;2023-02-15T08:06:11;-0.90;99.90
28171;DHT22;15458;53.346;-1.688;2023-02-15T08:08:38;-0.90;99.90
28171;DHT22;15458;53.346;-1.688;2023-02-15T08:11:17;-0.90;99.90
28171;DHT22;15458;53.346;-1.688;2023-02-15T08:17:36;-0.80;99.90
28171;DHT22;15458;53.346;-1.688;2023-02-15T08:20:02;-0.80;99.90
28171;DHT22;15458;53.346;-1.688;2023-02-15T08:22:28;-0.70;99.90
28171;DHT22;15458;53.346;-1.688;2023-02-15T08:24:55;-0.70;99.90
28171;DHT22;15458;53.346;-1.688;2023-02-15T08:27:20;-0.60;99.90
28171;DHT22;15458;53.346;-1.688;2023-02-15T08:29:51;-0.50;99.90
28171;DHT22;15458;53.346;-1.688;2023-02-15T08:32:17;-0.40;99.90
28171;DHT22;15458;53.346;-1.688;2023-02-15T08:34:43;-0.30;99.90
28171;DHT22;15458;53.346;-1.688;2023-02-15T08:37:09;-0.20;99.90
28171;DHT22;15458;53.346;-1.688;2023-02-15T08:39:35;0.00;99.90
28171;DHT22;15458;53.346;-1.688;2023-02-15T08:42:01;0.00;99.90
28171;DHT22;15458;53.346;-1.688;2023-02-15T08:44:26;0.10;99.90
28171;DHT22;15458;53.346;-1.688;2023-02-15T08:46:52;0.10;99.90
28171;DHT22;15458;53.346;-1.688;2023-02-15T08:49:21;0.20;99.90
28171;DHT22;15458;53.346;-1.688;2023-02-15T08:51:47;0.20;99.90
28171;DHT22;15458;53.346;-1.688;2023-02-15T08:54:16;0.20;99.90
28171;DHT22;15458;53.346;-1.688;2023-02-15T08:56:43;0.30;99.90
28171;DHT22;15458;53.346;-1.688;2023-02-15T08:59:18;0.40;99.90
28171;DHT22;15458;53.346;-1.688;2023-02-15T09:01:44;0.50;99.90
28171;DHT22;15458;53.346;-1.688;2023-02-15T09:04:10;0.60;99.90
28171;DHT22;15458;53.346;-1.688;2023-02-15T09:06:38;0.70;99.90
28171;DHT22;15458;53.346;-1.688;2023-02-15T09:09:05;0.70;99.90
28171;DHT22;15458;53.346;-1.688;2023-02-15T09:11:37;0.80;99.90
28171;DHT22;15458;53.346;-1.688;2023-02-15T09:14:06;0.80;99.90
28171;DHT22;15458;53.346;-1.688;2023-02-15T09:16:35;0.90;99.90
28171;DHT22;15458;53.346;-1.688;2023-02-15T09:19:01;1.00;99.90
28171;DHT22;15458;53.346;-1.688;2023-02-15T09:21:30;1.00;99.90
28171;DHT22;15458;53.346;-1.688;2023-02-15T09:24:00;1.10;99.90
28171;DHT22;15458;53.346;-1.688;2023-02-15T09:26:28;1.30;99.90
28171;DHT22;15458;53.346;-1.688;2023-02-15T09:28:57;1.40;99.90
28171;DHT22;15458;53.346;-1.688;2023-02-15T09:31:27;1.50;99.90
28171;DHT22;15458;53.346;-1.688;2023-02-15T09:33:53;1.60;99.90
28171;DHT22;15458;53.346;-1.688;2023-02-15T09:36:39;1.70;99.90
28171;DHT22;15458;53.346;-1.688;2023-02-15T09:39:11;1.70;99.90
28171;DHT22;15458;53.346;-1.688;2023-02-15T09:48:05;2.30;99.90
28171;DHT22;15458;53.346;-1.688;2023-02-15T09:59:01;3.30;99.90
28171;DHT22;15458;53.346;-1.688;2023-02-15T10:01:39;3.50;99.90
28171;DHT22;15458;53.346;-1.688;2023-02-15T10:26:47;6.90;99.90
28171;DHT22;15458;53.346;-1.688;2023-02-15T10:29:35;7.20;99.90
28171;DHT22;15458;53.346;-1.688;2023-02-15T10:43:20;8.70;99.90
28171;DHT22;15458;53.346;-1.688;2023-02-15T10:51:39;9.40;99.90
28171;DHT22;15458;53.346;-1.688;2023-02-15T10:57:18;10.30;99.90
28171;DHT22;15458;53.346;-1.688;2023-02-15T11:00:05;10.70;99.90
28171;DHT22;15458;53.346;-1.688;2023-02-15T11:03:00;11.00;99.90
28171;DHT22;15458;53.346;-1.688;2023-02-15T11:08:21;11.60;99.90
28171;DHT22;15458;53.346;-1.688;2023-02-15T11:10:51;11.90;99.90
28171;DHT22;15458;53.346;-1.688;2023-02-15T11:13:21;12.30;99.90
28171;DHT22;15458;53.346;-1.688;2023-02-15T11:15:58;12.60;99.90
28171;DHT22;15458;53.346;-1.688;2023-02-15T11:18:39;12.90;99.90
28171;DHT22;15458;53.346;-1.688;2023-02-15T11:21:13;13.00;99.90
28171;DHT22;15458;53.346;-1.688;2023-02-15T11:23:46;13.30;99.90
28171;DHT22;15458;53.346;-1.688;2023-02-15T11:26:37;13.40;99.90
28171;DHT22;15458;53.346;-1.688;2023-02-15T11:29:23;13.40;99.90
28171;DHT22;15458;53.346;-1.688;2023-02-15T11:31:56;13.50;99.90
28171;DHT22;15458;53.346;-1.688;2023-02-15T11:36:58;13.80;97.50
28171;DHT22;15458;53.346;-1.688;2023-02-15T11:39:26;13.90;96.80
28171;DHT22;15458;53.346;-1.688;2023-02-15T11:41:59;14.00;95.40
28171;DHT22;15458;53.346;-1.688;2023-02-15T11:44:39;13.90;94.40
28171;DHT22;15458;53.346;-1.688;2023-02-15T11:47:14;13.70;93.20
28171;DHT22;15458;53.346;-1.688;2023-02-15T11:49:43;13.60;92.90
28171;DHT22;15458;53.346;-1.688;2023-02-15T11:52:13;13.20;92.90
28171;DHT22;15458;53.346;-1.688;2023-02-15T11:54:41;13.00;93.10
28171;DHT22;15458;53.346;-1.688;2023-02-15T11:57:21;12.80;93.40
28171;DHT22;15458;53.346;-1.688;2023-02-15T12:00:16;12.60;93.90
28171;DHT22;15458;53.346;-1.688;2023-02-15T12:02:49;12.60;94.60
28171;DHT22;15458;53.346;-1.688;2023-02-15T12:05:19;12.70;95.10
28171;DHT22;15458;53.346;-1.688;2023-02-15T12:08:23;13.00;95.60
28171;DHT22;15458;53.346;-1.688;2023-02-15T12:11:31;13.50;95.40
28171;DHT22;15458;53.346;-1.688;2023-02-15T12:16:22;14.10;93.90
28171;DHT22;15458;53.346;-1.688;2023-02-15T12:18:50;14.40;93.40
28171;DHT22;15458;53.346;-1.688;2023-02-15T12:21:30;14.60;92.80
28171;DHT22;15458;53.346;-1.688;2023-02-15T12:24:18;14.70;92.50
28171;DHT22;15458;53.346;-1.688;2023-02-15T12:26:44;14.70;92.00
28171;DHT22;15458;53.346;-1.688;2023-02-15T12:29:27;14.40;91.20
28171;DHT22;15458;53.346;-1.688;2023-02-15T12:31:53;13.90;91.60
28171;DHT22;15458;53.346;-1.688;2023-02-15T12:34:26;13.40;92.40
28171;DHT22;15458;53.346;-1.688;2023-02-15T12:36:56;13.00;93.50
28171;DHT22;15458;53.346;-1.688;2023-02-15T12:39:30;12.60;94.50
28171;DHT22;15458;53.346;-1.688;2023-02-15T12:42:15;12.30;95.70
28171;DHT22;15458;53.346;-1.688;2023-02-15T12:44:59;12.00;96.80
28171;DHT22;15458;53.346;-1.688;2023-02-15T12:47:27;11.80;97.90
28171;DHT22;15458;53.346;-1.688;2023-02-15T12:50:13;11.60;98.90
28171;DHT22;15458;53.346;-1.688;2023-02-15T12:52:47;11.40;99.90
28171;DHT22;15458;53.346;-1.688;2023-02-15T12:55:20;11.20;99.90
28171;DHT22;15458;53.346;-1.688;2023-02-15T12:57:47;11.00;99.90
28171;DHT22;15458;53.346;-1.688;2023-02-15T13:02:44;10.70;99.90
28171;DHT22;15458;53.346;-1.688;2023-02-15T13:10:37;10.40;99.90
28171;DHT22;15458;53.346;-1.688;2023-02-15T13:13:16;10.30;99.90
28171;DHT22;15458;53.346;-1.688;2023-02-15T13:15:46;10.20;99.90
28171;DHT22;15458;53.346;-1.688;2023-02-15T13:18:23;10.20;99.90
28171;DHT22;15458;53.346;-1.688;2023-02-15T13:20:52;10.10;99.90
28171;DHT22;15458;53.346;-1.688;2023-02-15T13:25:50;10.10;99.90
28171;DHT22;15458;53.346;-1.688;2023-02-15T13:28:18;10.00;99.90
28171;DHT22;15458;53.346;-1.688;2023-02-15T13:30:49;10.00;99.90
28171;DHT22;15458;53.346;-1.688;2023-02-15T13:33:49;10.00;99.90
28171;DHT22;15458;53.346;-1.688;2023-02-15T13:45:29;10.00;99.90
28171;DHT22;15458;53.346;-1.688;2023-02-15T13:51:07;10.00;99.90
28171;DHT22;15458;53.346;-1.688;2023-02-15T14:17:46;10.10;99.90
28171;DHT22;15458;53.346;-1.688;2023-02-15T14:26:11;10.20;99.90
28171;DHT22;15458;53.346;-1.688;2023-02-15T14:31:15;10.30;99.90
28171;DHT22;15458;53.346;-1.688;2023-02-15T14:33:57;10.20;99.90
28171;DHT22;15458;53.346;-1.688;2023-02-15T14:36:24;10.20;99.90
28171;DHT22;15458;53.346;-1.688;2023-02-15T14:42:25;10.30;99.90
28171;DHT22;15458;53.346;-1.688;2023-02-15T14:45:03;10.50;99.90
28171;DHT22;15458;53.346;-1.688;2023-02-15T14:47:36;10.60;99.90
28171;DHT22;15458;53.346;-1.688;2023-02-15T14:50:43;10.70;99.90
28171;DHT22;15458;53.346;-1.688;2023-02-15T14:58:55;10.40;99.90
28171;DHT22;15458;53.346;-1.688;2023-02-15T15:01:27;10.40;99.90
28171;DHT22;15458;53.346;-1.688;2023-02-15T15:03:56;10.30;99.90
28171;DHT22;15458;53.346;-1.688;2023-02-15T15:09:01;10.20;99.90
28171;DHT22;15458;53.346;-1.688;2023-02-15T15:11:45;10.10;99.90
28171;DHT22;15458;53.346;-1.688;2023-02-15T15:16:56;10.00;99.90
28171;DHT22;15458;53.346;-1.688;2023-02-15T15:22:26;9.90;99.90
28171;DHT22;15458;53.346;-1.688;2023-02-15T15:24:57;9.90;99.90
28171;DHT22;15458;53.346;-1.688;2023-02-15T15:27:38;9.90;99.90
28171;DHT22;15458;53.346;-1.688;2023-02-15T15:33:20;9.90;99.90
28171;DHT22;15458;53.346;-1.688;2023-02-15T15:44:42;9.90;99.90
28171;DHT22;15458;53.346;-1.688;2023-02-15T15:49:42;9.90;99.90
28171;DHT22;15458;53.346;-1.688;2023-02-15T15:52:14;9.90;99.90
28171;DHT22;15458;53.346;-1.688;2023-02-15T15:54:41;9.90;99.90
28171;DHT22;15458;53.346;-1.688;2023-02-15T15:57:27;9.90;99.90
28171;DHT22;15458;53.346;-1.688;2023-02-15T15:59:54;9.80;99.90
28171;DHT22;15458;53.346;-1.688;2023-02-15T16:02:22;9.80;99.90
28171;DHT22;15458;53.346;-1.688;2023-02-15T16:04:49;9.80;99.90
28171;DHT22;15458;53.346;-1.688;2023-02-15T16:10:19;9.80;99.90
28171;DHT22;15458;53.346;-1.688;2023-02-15T16:12:46;9.70;99.90
28171;DHT22;15458;53.346;-1.688;2023-02-15T16:15:21;9.70;99.90
28171;DHT22;15458;53.346;-1.688;2023-02-15T16:17:52;9.80;99.90
28171;DHT22;15458;53.346;-1.688;2023-02-15T16:22:53;9.70;99.90
28171;DHT22;15458;53.346;-1.688;2023-02-15T16:25:28;9.70;99.90
28171;DHT22;15458;53.346;-1.688;2023-02-15T16:27:56;9.70;99.90
28171;DHT22;15458;53.346;-1.688;2023-02-15T16:30:31;9.60;99.90
28171;DHT22;15458;53.346;-1.688;2023-02-15T16:33:13;9.60;99.90
28171;DHT22;15458;53.346;-1.688;2023-02-15T16:35:54;9.60;99.90
28171;DHT22;15458;53.346;-1.688;2023-02-15T16:41:09;9.60;99.90
28171;DHT22;15458;53.346;-1.688;2023-02-15T16:43:37;9.50;99.90
28171;DHT22;15458;53.346;-1.688;2023-02-15T16:48:48;9.50;99.90
28171;DHT22;15458;53.346;-1.688;2023-02-15T16:51:34;9.50;99.90
28171;DHT22;15458;53.346;-1.688;2023-02-15T16:54:08;9.50;99.90
28171;DHT22;15458;53.346;-1.688;2023-02-15T16:56:39;9.40;99.90
28171;DHT22;15458;53.346;-1.688;2023-02-15T17:01:48;9.30;99.90
28171;DHT22;15458;53.346;-1.688;2023-02-15T17:04:27;9.30;99.90
28171;DHT22;15458;53.346;-1.688;2023-02-15T17:07:19;9.30;99.90
28171;DHT22;15458;53.346;-1.688;2023-02-15T17:09:55;9.20;99.90
28171;DHT22;15458;53.346;-1.688;2023-02-15T17:15:35;9.10;99.90
28171;DHT22;15458;53.346;-1.688;2023-02-15T17:20:33;9.00;99.90
28171;DHT22;15458;53.346;-1.688;2023-02-15T17:22:59;8.90;99.90
28171;DHT22;15458;53.346;-1.688;2023-02-15T17:25:32;8.90;99.90
28171;DHT22;15458;53.346;-1.688;2023-02-15T17:27:58;8.80;99.90
28171;DHT22;15458;53.346;-1.688;2023-02-15T17:30:30;8.80;99.90
28171;DHT22;15458;53.346;-1.688;2023-02-15T17:33:00;8.80;99.90
28171;DHT22;15458;53.346;-1.688;2023-02-15T17:35:29;8.80;99.90
28171;DHT22;15458;53.346;-1.688;2023-02-15T17:38:24;8.70;99.90
28171;DHT22;15458;53.346;-1.688;2023-02-15T17:40:50;8.70;99.90
28171;DHT22;15458;53.346;-1.688;2023-02-15T17:43:15;8.70;99.90
28171;DHT22;15458;53.346;-1.688;2023-02-15T17:45:47;8.70;99.90
28171;DHT22;15458;53.346;-1.688;2023-02-15T17:48:18;8.70;99.90
28171;DHT22;15458;53.346;-1.688;2023-02-15T17:50:45;8.70;99.90
28171;DHT22;15458;53.346;-1.688;2023-02-15T17:53:13;8.60;99.90
28171;DHT22;15458;53.346;-1.688;2023-02-15T17:55:41;8.60;99.90
28171;DHT22;15458;53.346;-1.688;2023-02-15T17:58:09;8.50;99.90
28171;DHT22;15458;53.346;-1.688;2023-02-15T18:00:40;8.50;99.90
28171;DHT22;15458;53.346;-1.688;2023-02-15T18:03:31;8.40;99.90
28171;DHT22;15458;53.346;-1.688;2023-02-15T18:06:17;8.30;99.90
28171;DHT22;15458;53.346;-1.688;2023-02-15T18:09:02;8.30;99.90
28171;DHT22;15458;53.346;-1.688;2023-02-15T18:11:46;8.30;99.90
28171;DHT22;15458;53.346;-1.688;2023-02-15T18:14:14;8.20;99.90
28171;DHT22;15458;53.346;-1.688;2023-02-15T18:16:41;8.20;99.90
28171;DHT22;15458;53.346;-1.688;2023-02-15T18:19:22;8.20;99.90
28171;DHT22;15458;53.346;-1.688;2023-02-15T18:21:48;8.10;99.90
28171;DHT22;15458;53.346;-1.688;2023-02-15T18:24:22;8.10;99.90
28171;DHT22;15458;53.346;-1.688;2023-02-15T18:26:49;8.00;99.90
28171;DHT22;15458;53.346;-1.688;2023-02-15T18:29:15;7.90;99.90
28171;DHT22;15458;53.346;-1.688;2023-02-15T18:31:43;7.80;99.90
28171;DHT22;15458;53.346;-1.688;2023-02-15T18:34:29;7.80;99.90
28171;DHT22;15458;53.346;-1.688;2023-02-15T18:36:57;7.70;99.90
28171;DHT22;15458;53.346;-1.688;2023-02-15T18:39:44;7.60;99.90
28171;DHT22;15458;53.346;-1.688;2023-02-15T18:42:24;7.60;99.90
28171;DHT22;15458;53.346;-1.688;2023-02-15T18:47:47;7.40;99.90
28171;DHT22;15458;53.346;-1.688;2023-02-15T18:50:14;7.40;99.90
28171;DHT22;15458;53.346;-1.688;2023-02-15T18:52:44;7.40;99.90
28171;DHT22;15458;53.346;-1.688;2023-02-15T18:57:45;7.40;99.90
28171;DHT22;15458;53.346;-1.688;2023-02-15T19:02:54;7.30;99.90
28171;DHT22;15458;53.346;-1.688;2023-02-15T19:05:25;7.20;99.90
28171;DHT22;15458;53.346;-1.688;2023-02-15T19:07:55;7.10;99.90
28171;DHT22;15458;53.346;-1.688;2023-02-15T19:10:26;7.10;99.90
28171;DHT22;15458;53.346;-1.688;2023-02-15T19:12:53;7.10;99.90
28171;DHT22;15458;53.346;-1.688;2023-02-15T19:15:24;7.00;99.90
28171;DHT22;15458;53.346;-1.688;2023-02-15T19:17:51;7.00;99.90